Time;durP1;ratioP1;P1;durP2;ratioP2;P2;SDS_P1;SDS_P2;PMS_P1;PMS_P2;Temp;Humidity;BMP_temperature;BMP_pressure;BME280_temperature;BME280_humidity;BME280_pressure;Samples;Min_cycle;Max_cycle;Signal;HPM_P1;HPM_P2
2021/06/25 00:02:44;;;;;;;4.10;3.70;;;;;;;;;;5065907;28;20074;-79
2021/06/25 00:05:28;;;;;;;4.95;3.78;;;;;;;;;;5040339;28;20048;-79
2021/06/25 00:08:13;;;;;;;4.47;3.35;;;;;;;;;;5051867;28;20376;-79
2021/06/25 00:10:58;;;;;;;4.60;3.65;;;;;;;;;;5048732;28;20054;-79
2021/06/25 00:13:43;;;;;;;4.75;3.33;;;;;;;;;;5063304;28;20040;-79
2021/06/25 00:16:27;;;;;;;4.93;3.17;;;;;;;;;;5062878;28;20510;-79
2021/06/25 00:19:12;;;;;;;5.13;3.40;;;;;;;;;;5062991;28;20616;-78
2021/06/25 00:21:57;;;;;;;4.97;3.50;;;;;;;;;;5050066;28;20046;-79
2021/06/25 00:24:41;;;;;;;4.88;3.40;;;;;;;;;;5048029;28;20039;-79
2021/06/25 00:27:26;;;;;;;4.22;3.08;;;;;;;;;;5066542;28;20035;-79
2021/06/25 00:30:11;;;;;;;4.20;3.20;;;;;;;;;;5057975;28;20083;-78
2021/06/25 00:32:55;;;;;;;3.53;3.03;;;;;;;;;;5069487;28;20039;-79
2021/06/25 00:35:40;;;;;;;3.92;2.88;;;;;;;;;;5053154;28;20034;-79
2021/06/25 00:38:25;;;;;;;3.08;2.78;;;;;;;;;;5061728;28;20040;-79
2021/06/25 00:41:09;;;;;;;3.90;3.20;;;;;;;;;;5049438;28;20047;-79
2021/06/25 00:43:54;;;;;;;4.15;2.80;;;;;;;;;;5061497;28;20075;-79
2021/06/25 00:46:38;;;;;;;4.75;3.05;;;;;;;;;;5073104;28;20093;-79
2021/06/25 00:49:23;;;;;;;4.15;2.83;;;;;;;;;;5051901;28;20071;-77
2021/06/25 00:52:07;;;;;;;4.90;3.10;;;;;;;;;;5075120;28;20059;-78
2021/06/25 00:54:52;;;;;;;5.13;2.90;;;;;;;;;;5072126;28;20105;-77
2021/06/25 00:57:37;;;;;;;4.60;2.60;;;;;;;;;;5063584;28;20130;-77
2021/06/25 01:00:22;;;;;;;4.68;2.80;;;;;;;;;;5063477;28;20166;-78
2021/06/25 01:03:06;;;;;;;4.65;2.70;;;;;;;;;;5064068;28;20047;-77
2021/06/25 01:05:51;;;;;;;3.83;2.97;;;;;;;;;;5049617;28;20070;-77
2021/06/25 01:08:39;;;;;;;3.40;2.78;;;;;;;;;;5053360;28;20117;-77
2021/06/25 01:11:24;;;;;;;3.95;2.97;;;;;;;;;;5057688;28;20120;-78
2021/06/25 01:14:08;;;;;;;3.80;2.83;;;;;;;;;;5063574;28;20510;-78
2021/06/25 01:16:53;;;;;;;4.45;2.88;;;;;;;;;;5074209;28;20050;-77
2021/06/25 01:19:37;;;;;;;4.20;3.13;;;;;;;;;;5070495;28;20081;-77
2021/06/25 01:22:26;;;;;;;4.28;3.10;;;;;;;;;;5061142;28;20562;-76
2021/06/25 01:25:14;;;;;;;3.75;2.97;;;;;;;;;;5048161;28;20402;-77
2021/06/25 01:28:04;;;;;;;4.25;3.00;;;;;;;;;;5067436;28;20078;-77
2021/06/25 01:30:49;;;;;;;4.25;3.15;;;;;;;;;;5064317;28;20138;-77
2021/06/25 01:33:34;;;;;;;4.45;2.85;;;;;;;;;;5065593;28;20066;-77
2021/06/25 01:36:19;;;;;;;5.45;3.00;;;;;;;;;;5045793;28;20058;-77
2021/06/25 01:39:05;;;;;;;3.65;2.88;;;;;;;;;;5056833;28;20149;-77
2021/06/25 01:41:50;;;;;;;3.65;3.05;;;;;;;;;;5053048;28;20180;-77
2021/06/25 01:44:37;;;;;;;4.07;3.03;;;;;;;;;;5063090;28;20051;-77
2021/06/25 01:47:22;;;;;;;4.18;2.88;;;;;;;;;;5053204;28;20415;-77
2021/06/25 01:50:07;;;;;;;4.25;2.83;;;;;;;;;;5072356;28;20467;-76
2021/06/25 01:52:53;;;;;;;4.05;2.70;;;;;;;;;;5070249;28;20039;-76
2021/06/25 01:55:41;;;;;;;4.30;2.78;;;;;;;;;;5074661;28;20146;-76
2021/06/25 01:58:26;;;;;;;3.67;2.75;;;;;;;;;;5055324;28;20118;-77
2021/06/25 02:01:14;;;;;;;4.85;3.05;;;;;;;;;;5069957;28;20451;-77
2021/06/25 02:03:58;;;;;;;4.97;3.13;;;;;;;;;;5055735;28;20043;-77
2021/06/25 02:06:43;;;;;;;4.28;3.05;;;;;;;;;;5068554;28;20502;-77
2021/06/25 02:09:28;;;;;;;4.38;2.70;;;;;;;;;;5069019;28;20221;-76
2021/06/25 02:12:12;;;;;;;4.55;2.88;;;;;;;;;;5068035;28;20040;-77
2021/06/25 02:14:57;;;;;;;4.38;2.63;;;;;;;;;;5079017;28;20459;-78
2021/06/25 02:17:42;;;;;;;3.88;2.75;;;;;;;;;;5070848;28;20121;-77
2021/06/25 02:20:26;;;;;;;5.55;2.50;;;;;;;;;;5070371;28;20047;-77
2021/06/25 02:23:11;;;;;;;5.90;3.30;;;;;;;;;;5067387;28;20218;-77
2021/06/25 02:25:56;;;;;;;3.05;2.40;;;;;;;;;;5067648;28;20075;-77
2021/06/25 02:28:40;;;;;;;4.32;2.50;;;;;;;;;;5067553;28;20724;-77
2021/06/25 02:31:25;;;;;;;3.80;2.47;;;;;;;;;;5053300;28;20058;-77
2021/06/25 02:34:09;;;;;;;2.58;2.38;;;;;;;;;;5053870;28;20047;-77
2021/06/25 02:36:54;;;;;;;3.97;2.45;;;;;;;;;;5053818;28;20780;-77
2021/06/25 02:39:39;;;;;;;5.13;2.53;;;;;;;;;;5068186;28;20124;-77
2021/06/25 02:42:23;;;;;;;3.92;2.30;;;;;;;;;;5067257;28;20056;-77
2021/06/25 02:45:08;;;;;;;4.55;2.30;;;;;;;;;;5053266;28;20027;-77
2021/06/25 02:47:53;;;;;;;3.92;2.33;;;;;;;;;;5065829;28;20112;-77
2021/06/25 02:50:37;;;;;;;5.43;2.70;;;;;;;;;;5067291;28;20052;-77
2021/06/25 02:53:22;;;;;;;3.13;2.30;;;;;;;;;;5060749;28;20039;-77
2021/06/25 02:56:06;;;;;;;4.05;2.30;;;;;;;;;;5068465;28;20051;-77
2021/06/25 02:58:51;;;;;;;3.13;2.30;;;;;;;;;;5067008;28;20039;-77
2021/06/25 03:01:36;;;;;;;3.42;2.20;;;;;;;;;;5068362;28;20101;-77
2021/06/25 03:04:20;;;;;;;3.85;2.35;;;;;;;;;;5053089;28;20108;-77
2021/06/25 03:07:04;;;;;;;4.18;2.72;;;;;;;;;;5064651;28;20498;-77
2021/06/25 03:09:49;;;;;;;3.78;2.30;;;;;;;;;;5066615;28;20407;-77
2021/06/25 03:12:34;;;;;;;5.03;2.10;;;;;;;;;;5065683;28;20158;-77
2021/06/25 03:15:19;;;;;;;5.28;2.20;;;;;;;;;;5068357;28;20043;-77
2021/06/25 03:18:03;;;;;;;3.40;2.03;;;;;;;;;;5052931;28;20557;-77
2021/06/25 03:20:48;;;;;;;3.85;2.30;;;;;;;;;;5068246;28;20090;-77
2021/06/25 03:23:33;;;;;;;2.97;2.55;;;;;;;;;;5066963;28;20078;-77
2021/06/25 03:26:18;;;;;;;4.57;2.35;;;;;;;;;;5066846;28;20052;-77
2021/06/25 03:29:02;;;;;;;4.50;1.98;;;;;;;;;;5067399;28;20051;-77
2021/06/25 03:31:47;;;;;;;3.88;2.08;;;;;;;;;;5066343;28;20410;-77
2021/06/25 03:34:32;;;;;;;3.35;2.00;;;;;;;;;;5061578;28;20035;-77
2021/06/25 03:37:16;;;;;;;2.92;2.20;;;;;;;;;;5046708;28;20047;-77
2021/06/25 03:40:01;;;;;;;3.45;1.92;;;;;;;;;;5077705;28;20513;-77
2021/06/25 03:42:46;;;;;;;3.80;1.98;;;;;;;;;;5073079;28;20047;-77
2021/06/25 03:45:30;;;;;;;5.20;2.20;;;;;;;;;;5053311;28;20071;-77
2021/06/25 03:48:15;;;;;;;3.55;1.90;;;;;;;;;;5062611;28;20038;-77
2021/06/25 03:50:59;;;;;;;3.20;1.85;;;;;;;;;;5066603;28;20519;-77
2021/06/25 03:53:44;;;;;;;3.03;1.75;;;;;;;;;;5065149;28;20732;-77
2021/06/25 03:56:28;;;;;;;2.90;1.85;;;;;;;;;;5052381;28;20051;-77
2021/06/25 03:59:13;;;;;;;2.80;1.75;;;;;;;;;;5069091;28;20071;-77
2021/06/25 04:01:57;;;;;;;4.38;1.90;;;;;;;;;;5069552;28;20035;-77
2021/06/25 04:04:42;;;;;;;4.75;1.80;;;;;;;;;;5069294;28;20640;-77
2021/06/25 04:07:27;;;;;;;2.97;1.80;;;;;;;;;;5072197;28;20036;-77
2021/06/25 04:10:12;;;;;;;3.35;1.60;;;;;;;;;;5061234;28;20105;-77
2021/06/25 04:12:57;;;;;;;4.28;1.80;;;;;;;;;;5067773;28;20039;-77
2021/06/25 04:15:41;;;;;;;3.42;1.90;;;;;;;;;;5076933;28;20128;-77
2021/06/25 04:18:26;;;;;;;3.00;1.77;;;;;;;;;;5066905;28;20024;-77
2021/06/25 04:21:10;;;;;;;3.15;1.70;;;;;;;;;;5065431;28;20144;-77
2021/06/25 04:23:55;;;;;;;3.55;1.80;;;;;;;;;;5066015;28;20043;-78
2021/06/25 04:26:39;;;;;;;3.55;1.73;;;;;;;;;;5065789;28;20047;-77
2021/06/25 04:29:24;;;;;;;5.63;1.80;;;;;;;;;;5052729;28;20055;-77
2021/06/25 04:32:09;;;;;;;3.13;1.60;;;;;;;;;;5064574;28;20048;-77
2021/06/25 04:34:54;;;;;;;3.95;1.92;;;;;;;;;;5053840;28;20067;-77
2021/06/25 04:37:39;;;;;;;4.13;1.73;;;;;;;;;;5065284;28;20039;-77
2021/06/25 04:40:23;;;;;;;3.50;1.58;;;;;;;;;;5052568;28;20115;-77
2021/06/25 04:43:08;;;;;;;4.13;1.80;;;;;;;;;;5063079;28;20039;-77
2021/06/25 04:45:53;;;;;;;3.80;1.65;;;;;;;;;;5081751;28;20089;-77
2021/06/25 04:48:38;;;;;;;3.03;1.45;;;;;;;;;;5067271;28;20491;-77
2021/06/25 04:51:23;;;;;;;2.60;1.50;;;;;;;;;;5075031;28;20047;-77
2021/06/25 04:54:07;;;;;;;3.83;1.70;;;;;;;;;;5062501;28;20043;-78
2021/06/25 04:56:52;;;;;;;3.53;1.60;;;;;;;;;;5064000;28;20411;-78
2021/06/25 04:59:36;;;;;;;3.58;1.60;;;;;;;;;;5073103;28;20047;-77
2021/06/25 05:02:21;;;;;;;2.10;1.30;;;;;;;;;;5067889;28;20521;-78
2021/06/25 05:05:06;;;;;;;4.45;1.50;;;;;;;;;;5061049;28;20517;-77
2021/06/25 05:07:52;;;;;;;3.22;1.95;;;;;;;;;;5063548;28;20040;-77
2021/06/25 05:10:36;;;;;;;3.10;1.70;;;;;;;;;;5058541;28;20712;-77
2021/06/25 05:13:21;;;;;;;3.80;1.75;;;;;;;;;;5062492;28;20086;-77
2021/06/25 05:16:06;;;;;;;3.35;1.50;;;;;;;;;;5049194;28;20701;-78
2021/06/25 05:18:51;;;;;;;4.70;1.75;;;;;;;;;;5065859;28;20051;-78
2021/06/25 05:21:36;;;;;;;3.85;1.63;;;;;;;;;;5063441;28;20047;-77
2021/06/25 05:24:20;;;;;;;3.30;1.50;;;;;;;;;;5063599;28;20054;-78
2021/06/25 05:27:05;;;;;;;3.60;1.60;;;;;;;;;;5048374;28;20078;-78
2021/06/25 05:29:50;;;;;;;2.10;1.50;;;;;;;;;;5063428;28;20617;-78
2021/06/25 05:32:34;;;;;;;4.00;1.67;;;;;;;;;;5072665;28;20039;-77
2021/06/25 05:35:19;;;;;;;2.08;1.50;;;;;;;;;;5064056;28;20543;-78
2021/06/25 05:38:05;;;;;;;3.33;1.73;;;;;;;;;;5066735;28;20089;-77
2021/06/25 05:40:50;;;;;;;2.22;1.58;;;;;;;;;;5048754;28;20048;-77
2021/06/25 05:43:34;;;;;;;3.80;1.50;;;;;;;;;;5064102;28;20404;-78
2021/06/25 05:46:19;;;;;;;2.50;1.90;;;;;;;;;;5048199;28;20055;-77
2021/06/25 05:49:04;;;;;;;3.97;1.75;;;;;;;;;;5070883;28;20094;-78
2021/06/25 05:51:49;;;;;;;3.63;1.77;;;;;;;;;;5052100;28;20469;-77
2021/06/25 05:54:34;;;;;;;4.55;1.63;;;;;;;;;;5065957;28;20051;-79
2021/06/25 05:57:18;;;;;;;4.43;1.63;;;;;;;;;;5062251;28;20762;-77
2021/06/25 06:00:06;;;;;;;3.08;1.60;;;;;;;;;;5066334;28;20056;-77
2021/06/25 06:02:51;;;;;;;4.72;1.65;;;;;;;;;;5062515;28;20170;-77
2021/06/25 06:05:36;;;;;;;3.08;1.40;;;;;;;;;;5074537;28;20150;-78
2021/06/25 06:08:21;;;;;;;3.50;1.50;;;;;;;;;;5076499;28;20034;-78
2021/06/25 06:11:05;;;;;;;3.38;1.50;;;;;;;;;;5035987;28;20052;-78
2021/06/25 06:13:50;;;;;;;3.03;1.50;;;;;;;;;;5070839;28;20066;-78
2021/06/25 06:16:35;;;;;;;3.97;1.70;;;;;;;;;;5078648;28;20043;-78
2021/06/25 06:19:19;;;;;;;2.58;1.35;;;;;;;;;;5062841;28;20051;-78
2021/06/25 06:31:21;;;;;;;3.85;1.73;;;;;;;;;;5070736;28;20336;-77
2021/06/25 06:34:09;;;;;;;2.80;1.60;;;;;;;;;;5066322;28;20123;-77
2021/06/25 06:36:54;;;;;;;3.80;1.75;;;;;;;;;;5079993;28;20042;-77
2021/06/25 06:39:39;;;;;;;3.13;1.60;;;;;;;;;;5066256;28;20039;-77
2021/06/25 06:42:24;;;;;;;3.33;1.40;;;;;;;;;;5065658;28;20067;-76
2021/06/25 06:45:09;;;;;;;4.15;1.48;;;;;;;;;;5060528;28;20045;-77
2021/06/25 06:47:54;;;;;;;3.53;1.75;;;;;;;;;;5037525;28;21366;-77
2021/06/25 06:50:38;;;;;;;3.55;1.65;;;;;;;;;;5075194;28;20123;-77
2021/06/25 06:53:23;;;;;;;6.13;1.50;;;;;;;;;;5079759;28;20047;-77
2021/06/25 06:56:10;;;;;;;3.97;1.92;;;;;;;;;;5073312;28;20039;-77
2021/06/25 06:58:54;;;;;;;3.65;1.50;;;;;;;;;;5066417;28;20419;-77
2021/06/25 07:01:39;;;;;;;4.68;1.60;;;;;;;;;;5064384;28;20839;-77
2021/06/25 07:04:24;;;;;;;4.15;1.70;;;;;;;;;;5050598;28;20090;-77
2021/06/25 07:07:08;;;;;;;3.13;1.50;;;;;;;;;;5055696;28;20052;-77
2021/06/25 07:09:53;;;;;;;3.00;1.70;;;;;;;;;;5066090;28;20097;-77
2021/06/25 07:12:39;;;;;;;4.03;1.77;;;;;;;;;;5063525;28;20506;-77
2021/06/25 07:15:24;;;;;;;3.00;1.58;;;;;;;;;;5066978;28;20735;-77
2021/06/25 07:18:08;;;;;;;3.97;1.67;;;;;;;;;;5064276;28;20085;-77
2021/06/25 07:20:53;;;;;;;4.03;1.70;;;;;;;;;;5072392;28;20036;-77
2021/06/25 07:23:37;;;;;;;6.97;1.70;;;;;;;;;;5063313;28;20502;-77
2021/06/25 07:26:22;;;;;;;4.00;1.70;;;;;;;;;;5072932;28;20139;-77
2021/06/25 07:29:06;;;;;;;5.65;1.80;;;;;;;;;;5064779;28;20105;-78
2021/06/25 07:31:51;;;;;;;5.18;1.80;;;;;;;;;;5064383;28;20174;-77
2021/06/25 07:34:36;;;;;;;5.35;1.80;;;;;;;;;;5058121;28;20063;-78
2021/06/25 07:37:21;;;;;;;3.80;1.65;;;;;;;;;;5080063;28;20102;-78
2021/06/25 07:40:06;;;;;;;3.80;1.50;;;;;;;;;;5037800;28;20165;-78
2021/06/25 07:42:50;;;;;;;3.83;1.50;;;;;;;;;;5073866;28;20070;-79
2021/06/25 07:45:35;;;;;;;5.05;1.80;;;;;;;;;;5063778;28;20143;-79
2021/06/25 07:48:19;;;;;;;3.88;1.60;;;;;;;;;;5056729;28;20039;-77
2021/06/25 07:51:04;;;;;;;4.15;1.50;;;;;;;;;;5056474;28;20129;-77
2021/06/25 07:53:49;;;;;;;4.00;1.70;;;;;;;;;;5058623;28;20040;-77
2021/06/25 07:56:34;;;;;;;5.32;1.80;;;;;;;;;;5065397;28;20382;-78
2021/06/25 07:59:18;;;;;;;3.22;1.73;;;;;;;;;;5064664;28;20117;-77
2021/06/25 08:02:03;;;;;;;4.50;1.63;;;;;;;;;;5063285;28;20085;-78
2021/06/25 08:04:48;;;;;;;6.82;1.85;;;;;;;;;;5064286;28;20096;-79
2021/06/25 08:07:33;;;;;;;5.30;1.70;;;;;;;;;;5063237;28;20097;-78
2021/06/25 08:10:18;;;;;;;3.78;1.50;;;;;;;;;;5069875;28;20514;-77
2021/06/25 08:13:02;;;;;;;3.65;1.70;;;;;;;;;;5064765;28;20039;-78
2021/06/25 08:15:49;;;;;;;3.15;1.50;;;;;;;;;;5057884;28;20035;-77
2021/06/25 08:18:34;;;;;;;4.70;1.50;;;;;;;;;;5080158;28;20047;-77
2021/06/25 08:21:19;;;;;;;2.40;1.50;;;;;;;;;;5063142;28;20094;-77
2021/06/25 08:24:04;;;;;;;3.63;1.63;;;;;;;;;;5048580;28;20612;-78
2021/06/25 08:26:49;;;;;;;4.20;1.65;;;;;;;;;;5066700;28;20202;-77
2021/06/25 08:29:34;;;;;;;6.22;1.50;;;;;;;;;;5080074;28;20043;-76
2021/06/25 08:32:18;;;;;;;5.82;1.77;;;;;;;;;;5065240;28;20102;-77
2021/06/25 08:35:04;;;;;;;3.13;1.50;;;;;;;;;;5064484;28;20039;-77
2021/06/25 08:37:49;;;;;;;3.15;1.58;;;;;;;;;;5063278;28;20856;-77
2021/06/25 08:40:33;;;;;;;2.30;1.60;;;;;;;;;;5066926;28;20165;-77
2021/06/25 08:43:18;;;;;;;3.35;1.60;;;;;;;;;;5053273;28;20043;-77
2021/06/25 08:46:02;;;;;;;3.05;1.60;;;;;;;;;;5057856;28;20038;-77
2021/06/25 08:48:48;;;;;;;2.58;1.55;;;;;;;;;;5050594;28;20552;-77
2021/06/25 08:51:33;;;;;;;5.47;1.80;;;;;;;;;;5052567;28;20065;-76
2021/06/25 08:54:17;;;;;;;3.72;1.50;;;;;;;;;;5063633;28;20067;-77
2021/06/25 08:57:07;;;;;;;2.65;1.45;;;;;;;;;;5050915;28;20422;-77
2021/06/25 08:59:51;;;;;;;4.30;1.80;;;;;;;;;;5055586;28;20081;-77
2021/06/25 09:02:36;;;;;;;2.72;1.30;;;;;;;;;;5069754;28;20038;-77
2021/06/25 09:05:21;;;;;;;3.45;1.50;;;;;;;;;;5064371;28;20043;-77
2021/06/25 09:08:06;;;;;;;2.80;1.45;;;;;;;;;;5063709;28;20083;-78
2021/06/25 09:10:53;;;;;;;4.35;1.70;;;;;;;;;;5064254;28;20060;-77
2021/06/25 09:13:38;;;;;;;4.07;1.70;;;;;;;;;;5048815;28;20129;-77
2021/06/25 09:16:23;;;;;;;3.70;1.73;;;;;;;;;;5056128;28;20044;-77
2021/06/25 09:19:09;;;;;;;3.17;1.30;;;;;;;;;;5048012;28;20935;-77
2021/06/25 09:22:00;;;;;;;4.25;1.65;;;;;;;;;;5061880;28;20039;-78
2021/06/25 09:24:50;;;;;;;5.82;1.75;;;;;;;;;;5044534;28;20039;-77
2021/06/25 09:27:34;;;;;;;2.72;1.58;;;;;;;;;;5053182;28;20059;-77
2021/06/25 09:30:19;;;;;;;5.00;2.00;;;;;;;;;;5047847;28;20093;-77
2021/06/25 09:33:04;;;;;;;3.67;1.50;;;;;;;;;;5048241;28;20453;-77
2021/06/25 09:35:50;;;;;;;4.53;1.55;;;;;;;;;;5062529;28;20106;-77
2021/06/25 09:38:36;;;;;;;3.63;1.35;;;;;;;;;;5061929;28;20174;-77
2021/06/25 09:41:20;;;;;;;3.15;1.70;;;;;;;;;;5046325;28;20158;-78
2021/06/25 09:44:06;;;;;;;2.67;1.33;;;;;;;;;;5056995;28;20131;-78
2021/06/25 09:46:51;;;;;;;4.18;1.40;;;;;;;;;;5054022;28;20074;-80
2021/06/25 09:49:36;;;;;;;4.32;1.58;;;;;;;;;;5058362;28;20043;-78
2021/06/25 09:52:21;;;;;;;3.97;1.70;;;;;;;;;;5056478;28;20039;-78
2021/06/25 09:55:08;;;;;;;5.97;1.65;;;;;;;;;;5036023;28;20064;-77
2021/06/25 09:58:09;;;;;;;3.40;1.40;;;;;;;;;;5044817;28;20043;-79
2021/06/25 10:03:58;;;;;;;3.03;1.20;;;;;;;;;;5061057;28;20102;-78
2021/06/25 10:06:43;;;;;;;6.38;1.77;;;;;;;;;;5041717;28;20140;-78
2021/06/25 10:09:27;;;;;;;7.57;1.65;;;;;;;;;;5048011;28;20066;-78
2021/06/25 10:12:12;;;;;;;6.28;1.73;;;;;;;;;;5057940;28;20544;-78
2021/06/25 10:14:57;;;;;;;3.58;1.52;;;;;;;;;;5076571;28;20571;-78
2021/06/25 10:17:42;;;;;;;4.70;1.73;;;;;;;;;;5061180;28;20047;-77
2021/06/25 10:20:26;;;;;;;7.50;1.85;;;;;;;;;;5064998;28;20035;-78
2021/06/25 10:23:10;;;;;;;5.18;1.73;;;;;;;;;;5065030;28;20406;-78
2021/06/25 10:25:55;;;;;;;5.18;1.67;;;;;;;;;;5066083;28;20534;-77
2021/06/25 10:28:40;;;;;;;4.55;1.83;;;;;;;;;;5064776;28;20047;-77
2021/06/25 10:31:25;;;;;;;4.18;1.38;;;;;;;;;;5068253;28;20078;-78
2021/06/25 10:34:10;;;;;;;5.65;1.90;;;;;;;;;;5065550;28;20545;-78
2021/06/25 10:36:54;;;;;;;6.80;2.00;;;;;;;;;;5064530;28;20039;-77
2021/06/25 10:39:39;;;;;;;6.05;2.10;;;;;;;;;;5066641;28;20039;-77
2021/06/25 10:42:37;;;;;;;5.85;2.05;;;;;;;;;;5048713;28;20577;-78
2021/06/25 10:45:40;;;;;;;5.00;2.00;;;;;;;;;;5049654;28;20098;-78
2021/06/25 10:48:40;;;;;;;6.30;2.33;;;;;;;;;;5051435;28;20070;-79
2021/06/25 10:51:26;;;;;;;6.40;1.80;;;;;;;;;;5063689;28;20044;-78
2021/06/25 10:54:20;;;;;;;9.88;2.20;;;;;;;;;;5065140;28;20047;-78
2021/06/25 10:57:06;;;;;;;5.43;1.90;;;;;;;;;;5064768;28;20051;-78
2021/06/25 10:59:51;;;;;;;3.92;1.77;;;;;;;;;;5067126;28;20094;-78
2021/06/25 11:02:46;;;;;;;7.30;1.90;;;;;;;;;;5061532;28;20039;-78
2021/06/25 11:05:34;;;;;;;8.10;2.47;;;;;;;;;;5060751;28;20123;-78
2021/06/25 11:08:18;;;;;;;6.25;2.10;;;;;;;;;;5065009;28;20542;-79
2021/06/25 11:11:03;;;;;;;8.50;2.20;;;;;;;;;;5065934;28;20055;-78
2021/06/25 11:13:51;;;;;;;6.60;2.35;;;;;;;;;;5049669;28;20071;-78
2021/06/25 11:16:35;;;;;;;9.60;2.90;;;;;;;;;;5073276;28;20055;-79
2021/06/25 11:19:39;;;;;;;7.75;2.30;;;;;;;;;;5054579;28;20102;-78
2021/06/25 11:22:39;;;;;;;8.45;2.05;;;;;;;;;;5066653;28;20039;-79
2021/06/25 11:25:33;;;;;;;6.90;2.13;;;;;;;;;;5058937;28;20063;-78
2021/06/25 11:28:30;;;;;;;7.53;2.33;;;;;;;;;;5067849;28;20039;-78
2021/06/25 11:31:16;;;;;;;9.13;2.45;;;;;;;;;;5062900;28;20569;-77
2021/06/25 11:34:02;;;;;;;6.25;2.08;;;;;;;;;;5068469;28;20066;-79
2021/06/25 11:36:54;;;;;;;6.53;2.05;;;;;;;;;;5063828;28;20158;-78
2021/06/25 11:39:39;;;;;;;6.93;2.15;;;;;;;;;;5054304;28;20047;-79
2021/06/25 11:42:26;;;;;;;8.55;2.22;;;;;;;;;;5047254;28;20094;-76
2021/06/25 11:45:11;;;;;;;7.05;2.20;;;;;;;;;;5062019;28;20090;-76
2021/06/25 11:47:56;;;;;;;7.20;2.25;;;;;;;;;;5063935;28;20166;-76
2021/06/25 11:50:40;;;;;;;5.22;2.28;;;;;;;;;;5063146;28;20091;-76
2021/06/25 11:53:25;;;;;;;5.78;2.00;;;;;;;;;;5069300;28;20042;-75
2021/06/25 11:56:19;;;;;;;7.65;2.15;;;;;;;;;;5052939;28;20043;-75
2021/06/25 11:59:08;;;;;;;7.05;1.80;;;;;;;;;;5060741;28;20124;-76
2021/06/25 12:01:56;;;;;;;5.28;2.50;;;;;;;;;;5035339;28;20415;-75
2021/06/25 12:04:42;;;;;;;3.92;1.58;;;;;;;;;;5034408;28;20709;-76
2021/06/25 12:07:26;;;;;;;5.90;1.73;;;;;;;;;;5050899;28;20064;-76
2021/06/25 12:10:11;;;;;;;4.30;1.90;;;;;;;;;;5055977;28;20043;-76
2021/06/25 12:12:57;;;;;;;5.38;1.95;;;;;;;;;;5055474;28;20090;-76
2021/06/25 12:15:45;;;;;;;4.63;1.85;;;;;;;;;;5056272;28;20098;-75
2021/06/25 12:18:30;;;;;;;6.28;2.10;;;;;;;;;;5043144;28;20132;-76
2021/06/25 12:21:17;;;;;;;4.53;1.80;;;;;;;;;;5057155;28;20707;-76
2021/06/25 12:24:01;;;;;;;4.22;1.77;;;;;;;;;;5064786;28;20067;-76
2021/06/25 12:26:47;;;;;;;6.82;1.75;;;;;;;;;;5061419;28;20395;-76
2021/06/25 12:29:34;;;;;;;5.13;1.80;;;;;;;;;;5057303;28;20570;-76
2021/06/25 12:32:19;;;;;;;3.53;1.40;;;;;;;;;;5054525;28;20044;-76
2021/06/25 12:35:04;;;;;;;3.38;1.67;;;;;;;;;;5058780;28;20035;-78
2021/06/25 12:37:53;;;;;;;4.30;1.55;;;;;;;;;;5064973;28;20044;-75
2021/06/25 12:40:39;;;;;;;5.97;1.48;;;;;;;;;;5054098;28;20407;-75
2021/06/25 12:43:30;;;;;;;6.05;2.03;;;;;;;;;;5063790;28;20062;-76
2021/06/25 12:46:15;;;;;;;6.55;1.85;;;;;;;;;;5055495;28;20036;-76
2021/06/25 12:48:59;;;;;;;3.00;1.50;;;;;;;;;;5073518;28;20047;-76
2021/06/25 12:51:44;;;;;;;3.20;1.42;;;;;;;;;;5034282;28;20098;-76
2021/06/25 12:54:29;;;;;;;5.80;1.50;;;;;;;;;;5050191;28;20411;-76
2021/06/25 12:57:14;;;;;;;6.88;1.50;;;;;;;;;;5057815;28;20051;-75
2021/06/25 12:59:58;;;;;;;4.53;1.40;;;;;;;;;;5037768;28;20072;-75
2021/06/25 13:02:42;;;;;;;2.28;1.40;;;;;;;;;;5062397;28;20842;-76
2021/06/25 13:05:31;;;;;;;3.33;1.58;;;;;;;;;;5063340;28;20514;-76
2021/06/25 13:08:16;;;;;;;5.22;1.30;;;;;;;;;;5054634;28;20158;-76
2021/06/25 13:11:17;;;;;;;4.38;1.40;;;;;;;;;;5055996;28;20524;-76
2021/06/25 13:14:02;;;;;;;2.00;1.23;;;;;;;;;;5028986;28;20102;-76
2021/06/25 13:16:47;;;;;;;3.88;1.50;;;;;;;;;;5046391;28;20040;-75
2021/06/25 13:19:41;;;;;;;3.55;1.45;;;;;;;;;;5060344;28;20058;-75
2021/06/25 13:22:29;;;;;;;3.25;1.20;;;;;;;;;;5047076;28;20492;-76
2021/06/25 13:25:20;;;;;;;3.25;1.48;;;;;;;;;;5061674;28;20131;-76
2021/06/25 13:28:04;;;;;;;2.75;1.15;;;;;;;;;;5068746;28;20470;-77
2021/06/25 13:31:09;;;;;;;2.33;1.30;;;;;;;;;;5061920;28;20812;-75
2021/06/25 13:33:54;;;;;;;3.97;1.27;;;;;;;;;;5060361;28;20089;-76
2021/06/25 13:36:51;;;;;;;3.17;1.40;;;;;;;;;;5050197;28;20075;-76
2021/06/25 13:39:39;;;;;;;2.72;1.20;;;;;;;;;;5062264;28;20057;-76
2021/06/25 13:42:24;;;;;;;3.50;1.30;;;;;;;;;;5056066;28;20089;-77
2021/06/25 13:45:16;;;;;;;3.97;1.40;;;;;;;;;;5063544;28;20454;-75
2021/06/25 13:48:00;;;;;;;4.45;1.33;;;;;;;;;;5061071;28;20044;-77
2021/06/25 13:50:50;;;;;;;2.17;1.10;;;;;;;;;;5063089;28;20565;-76
2021/06/25 13:53:39;;;;;;;1.80;1.20;;;;;;;;;;5063260;28;20510;-76
2021/06/25 13:56:25;;;;;;;2.15;1.30;;;;;;;;;;5060785;28;20043;-76
2021/06/25 13:59:11;;;;;;;6.10;1.35;;;;;;;;;;5061146;28;20561;-76
2021/06/25 14:01:55;;;;;;;2.63;1.00;;;;;;;;;;5065301;28;20039;-76
2021/06/25 14:04:40;;;;;;;3.55;1.40;;;;;;;;;;5061240;28;20099;-76
2021/06/25 14:07:25;;;;;;;3.63;1.23;;;;;;;;;;5048517;28;20667;-76
2021/06/25 14:10:09;;;;;;;2.45;1.30;;;;;;;;;;5062540;28;20051;-76
2021/06/25 14:12:55;;;;;;;4.93;1.17;;;;;;;;;;5056734;28;20124;-75
2021/06/25 14:15:44;;;;;;;2.17;1.15;;;;;;;;;;5060898;28;20630;-77
2021/06/25 14:18:28;;;;;;;3.05;1.10;;;;;;;;;;5062664;28;20097;-77
2021/06/25 14:21:14;;;;;;;2.88;1.02;;;;;;;;;;5059865;28;20051;-75
2021/06/25 14:23:59;;;;;;;3.80;1.42;;;;;;;;;;5058021;28;20612;-75
2021/06/25 14:26:44;;;;;;;2.80;1.23;;;;;;;;;;5058424;28;20044;-74
2021/06/25 14:29:28;;;;;;;2.08;1.10;;;;;;;;;;5062944;28;20530;-74
2021/06/25 14:32:13;;;;;;;2.75;1.20;;;;;;;;;;5061797;28;20158;-74
2021/06/25 14:34:57;;;;;;;2.30;1.10;;;;;;;;;;5062232;28;20411;-75
2021/06/25 14:37:43;;;;;;;1.88;1.08;;;;;;;;;;5061690;28;20100;-74
2021/06/25 14:40:28;;;;;;;4.05;1.40;;;;;;;;;;5071514;28;20565;-75
2021/06/25 14:43:12;;;;;;;4.20;1.20;;;;;;;;;;5052239;28;20055;-79
2021/06/25 14:45:57;;;;;;;2.65;1.20;;;;;;;;;;5064714;28;20458;-78
2021/06/25 14:48:42;;;;;;;5.97;1.10;;;;;;;;;;5034931;28;20510;-77
2021/06/25 14:51:27;;;;;;;4.57;1.40;;;;;;;;;;5037964;28;20044;-77
2021/06/25 14:54:12;;;;;;;2.70;1.10;;;;;;;;;;5064563;28;20047;-77
2021/06/25 14:56:56;;;;;;;2.40;1.25;;;;;;;;;;5048503;28;20066;-75
2021/06/25 14:59:41;;;;;;;2.42;1.30;;;;;;;;;;5066817;28;20067;-74
2021/06/25 15:02:25;;;;;;;4.05;1.20;;;;;;;;;;5055636;28;20491;-72
2021/06/25 15:05:10;;;;;;;1.80;1.05;;;;;;;;;;5056716;28;20090;-72
2021/06/25 15:07:55;;;;;;;3.10;1.20;;;;;;;;;;5061005;28;20043;-72
2021/06/25 15:10:39;;;;;;;4.25;1.00;;;;;;;;;;5065718;28;20586;-75
2021/06/25 15:13:24;;;;;;;1.92;1.02;;;;;;;;;;5053166;28;20316;-76
2021/06/25 15:16:08;;;;;;;5.90;1.58;;;;;;;;;;5060812;28;20586;-76
2021/06/25 15:18:53;;;;;;;4.00;1.40;;;;;;;;;;5059859;28;20051;-74
2021/06/25 15:21:37;;;;;;;2.47;1.38;;;;;;;;;;5073523;28;20047;-75
2021/06/25 15:24:22;;;;;;;2.58;1.02;;;;;;;;;;5062154;28;20547;-76
2021/06/25 15:27:07;;;;;;;2.50;1.02;;;;;;;;;;5065751;28;20153;-76
2021/06/25 15:29:51;;;;;;;2.03;1.00;;;;;;;;;;5052310;28;20186;-77
2021/06/25 15:32:36;;;;;;;2.80;1.23;;;;;;;;;;5066725;28;20647;-77
2021/06/25 15:35:21;;;;;;;1.88;1.00;;;;;;;;;;5045084;28;20070;-76
2021/06/25 15:38:08;;;;;;;3.17;1.10;;;;;;;;;;5057593;28;20081;-76
2021/06/25 15:40:52;;;;;;;4.15;1.60;;;;;;;;;;5063362;28;20122;-77
2021/06/25 15:43:37;;;;;;;2.10;1.10;;;;;;;;;;5065417;28;20583;-75
2021/06/25 15:46:21;;;;;;;2.60;1.10;;;;;;;;;;5048350;28;20525;-75
2021/06/25 15:49:06;;;;;;;3.25;1.20;;;;;;;;;;5060276;28;20040;-75
2021/06/25 15:51:51;;;;;;;4.68;1.20;;;;;;;;;;5048489;28;20827;-77
2021/06/25 15:54:35;;;;;;;3.03;1.10;;;;;;;;;;5060551;28;20047;-75
2021/06/25 15:57:20;;;;;;;1.65;1.00;;;;;;;;;;5051700;28;20518;-76
2021/06/25 16:00:05;;;;;;;2.35;1.20;;;;;;;;;;5034827;28;20492;-76
2021/06/25 16:02:50;;;;;;;2.58;1.20;;;;;;;;;;5064418;28;20659;-76
2021/06/25 16:05:34;;;;;;;3.60;1.20;;;;;;;;;;5062165;28;20202;-76
2021/06/25 16:08:26;;;;;;;4.07;1.65;;;;;;;;;;5064642;28;20118;-76
2021/06/25 16:11:13;;;;;;;3.70;1.20;;;;;;;;;;5062187;28;20047;-77
2021/06/25 16:13:58;;;;;;;2.85;1.08;;;;;;;;;;5059570;28;20036;-78
2021/06/25 16:16:43;;;;;;;5.15;1.40;;;;;;;;;;5065932;28;20043;-77
2021/06/25 16:19:27;;;;;;;2.50;1.20;;;;;;;;;;5065474;28;20564;-76
2021/06/25 16:22:13;;;;;;;6.13;1.00;;;;;;;;;;5058356;28;20109;-76
2021/06/25 16:24:57;;;;;;;2.45;1.00;;;;;;;;;;5039239;28;20256;-75
2021/06/25 16:27:42;;;;;;;2.22;1.20;;;;;;;;;;5074251;28;20151;-78
2021/06/25 16:30:26;;;;;;;3.10;1.52;;;;;;;;;;5042537;28;20048;-76
2021/06/25 16:33:11;;;;;;;2.70;1.20;;;;;;;;;;5055457;28;20154;-76
2021/06/25 16:35:55;;;;;;;3.05;1.30;;;;;;;;;;5049298;28;20689;-77
2021/06/25 16:38:40;;;;;;;3.63;1.33;;;;;;;;;;5056834;28;20523;-76
2021/06/25 16:41:25;;;;;;;3.30;1.10;;;;;;;;;;5064636;28;20062;-76
2021/06/25 16:44:10;;;;;;;3.63;1.33;;;;;;;;;;5047825;28;20373;-78
2021/06/25 16:46:54;;;;;;;1.80;1.10;;;;;;;;;;5042082;28;20031;-75